createdAt,value
2022-09-10T00:00:24.574Z,22.63
2022-09-10T00:02:51.631Z,22.65
2022-09-10T00:05:18.649Z,22.64
2022-09-10T00:07:46.192Z,22.61
2022-09-10T00:10:13.275Z,22.59
2022-09-10T00:12:42.482Z,22.59
2022-09-10T00:15:10.137Z,22.57
2022-09-10T00:17:38.907Z,22.58
2022-09-10T00:20:05.963Z,22.58
2022-09-10T00:22:34.352Z,22.61
2022-09-10T00:25:05.048Z,22.58
2022-09-10T00:27:34.710Z,22.60
2022-09-10T00:30:02.643Z,22.57
2022-09-10T00:32:29.666Z,22.57
2022-09-10T00:34:56.697Z,22.54
2022-09-10T00:37:23.686Z,22.57
2022-09-10T00:39:50.738Z,22.59
2022-09-10T00:42:18.206Z,22.59
2022-09-10T00:44:45.274Z,22.59
2022-09-10T00:47:12.268Z,22.59
2022-09-10T00:49:39.273Z,22.54
2022-09-10T00:52:06.262Z,22.52
2022-09-10T00:54:33.749Z,22.52
2022-09-10T00:57:00.930Z,22.52
2022-09-10T00:59:27.935Z,22.55
2022-09-10T01:01:55.614Z,22.59
2022-09-10T01:04:22.663Z,22.54
2022-09-10T01:06:51.973Z,22.52
2022-09-10T01:09:19.037Z,22.47
2022-09-10T01:11:46.025Z,22.47
2022-09-10T01:14:13.031Z,22.46
2022-09-10T01:16:40.124Z,22.52
2022-09-10T01:19:07.411Z,22.49
2022-09-10T01:21:34.406Z,22.47
2022-09-10T01:24:01.530Z,22.45
2022-09-10T01:26:28.525Z,22.45
2022-09-10T01:28:55.674Z,22.43
2022-09-10T01:31:22.791Z,22.37
2022-09-10T01:33:49.859Z,22.35
2022-09-10T01:36:16.841Z,22.33
2022-09-10T01:38:43.870Z,22.32
2022-09-10T01:41:10.866Z,22.29
2022-09-10T01:43:37.890Z,22.28
2022-09-10T01:46:04.959Z,22.26
2022-09-10T01:48:32.038Z,22.24
2022-09-10T01:50:59.039Z,22.24
2022-09-10T01:53:27.583Z,22.22
2022-09-10T01:55:54.593Z,22.21
2022-09-10T01:58:21.584Z,22.20
2022-09-10T02:00:49.975Z,22.18
2022-09-10T02:03:17.397Z,22.17
2022-09-10T02:05:44.403Z,22.16
2022-09-10T02:08:11.439Z,22.15
2022-09-10T02:10:38.432Z,22.15
2022-09-10T02:13:05.433Z,22.13
2022-09-10T02:15:32.558Z,22.12
2022-09-10T02:17:59.575Z,22.11
2022-09-10T02:20:26.651Z,22.11
2022-09-10T02:22:53.655Z,22.09
2022-09-10T02:25:20.648Z,22.10
2022-09-10T02:27:47.674Z,22.08
2022-09-10T02:30:14.783Z,22.07
2022-09-10T02:32:42.947Z,22.05
2022-09-10T02:35:09.983Z,22.05
2022-09-10T02:37:37.227Z,22.04
2022-09-10T02:40:04.582Z,22.04
2022-09-10T02:42:31.790Z,22.03
2022-09-10T02:44:58.795Z,22.03
2022-09-10T02:47:25.784Z,22.02
2022-09-10T02:49:52.827Z,22.01
2022-09-10T02:52:22.031Z,22.00
2022-09-10T02:54:54.078Z,22.00
2022-09-10T02:57:21.145Z,22.00
2022-09-10T02:59:48.139Z,21.99
2022-09-10T03:02:15.193Z,21.98
2022-09-10T03:04:42.229Z,21.98
2022-09-10T03:07:09.244Z,21.97
2022-09-10T03:09:36.236Z,21.97
2022-09-10T03:12:03.240Z,21.96
2022-09-10T03:14:31.142Z,21.96
2022-09-10T03:16:58.226Z,21.95
2022-09-10T03:19:25.248Z,21.95
2022-09-10T03:21:53.054Z,21.94
2022-09-10T03:24:20.057Z,21.93
2022-09-10T03:26:47.079Z,21.92
2022-09-10T03:29:15.542Z,21.93
2022-09-10T03:31:43.667Z,21.92
2022-09-10T03:34:10.695Z,21.92
2022-09-10T03:36:37.687Z,21.91
2022-09-10T03:39:04.702Z,21.91
2022-09-10T03:41:32.031Z,21.91
2022-09-10T03:43:59.048Z,21.90
2022-09-10T03:46:26.250Z,21.91
2022-09-10T03:48:55.328Z,21.90
2022-09-10T03:51:23.298Z,21.90
2022-09-10T03:53:50.346Z,21.89
2022-09-10T03:56:20.084Z,21.89
2022-09-10T03:58:47.105Z,21.88
2022-09-10T04:01:14.195Z,21.88
2022-09-10T04:03:42.095Z,21.88
2022-09-10T04:06:09.096Z,21.87
2022-09-10T04:08:36.099Z,21.88
2022-09-10T04:11:03.232Z,21.87
2022-09-10T04:13:31.684Z,21.86
2022-09-10T04:16:00.297Z,21.86
2022-09-10T04:18:28.107Z,21.86
2022-09-10T04:20:55.368Z,21.85
2022-09-10T04:23:22.399Z,21.86
2022-09-10T04:25:49.733Z,21.85
2022-09-10T04:28:16.845Z,21.85
2022-09-10T04:30:44.602Z,21.85
2022-09-10T04:33:14.607Z,21.84
2022-09-10T04:35:41.841Z,21.83
2022-09-10T04:38:08.839Z,21.82
2022-09-10T04:40:35.905Z,21.82
2022-09-10T04:43:02.965Z,21.82
2022-09-10T04:45:30.866Z,21.82
2022-09-10T04:47:57.904Z,21.82
2022-09-10T04:50:24.896Z,21.81
2022-09-10T04:52:51.907Z,21.81
2022-09-10T04:55:19.001Z,21.82
2022-09-10T04:57:46.004Z,21.81
2022-09-10T05:00:13.537Z,21.81
2022-09-10T05:02:40.534Z,21.81
2022-09-10T05:05:07.529Z,21.80
2022-09-10T05:07:34.510Z,21.79
2022-09-10T05:10:01.507Z,21.80
2022-09-10T05:12:28.538Z,21.80
2022-09-10T05:14:55.584Z,21.80
2022-09-10T05:17:22.576Z,21.79
2022-09-10T05:19:49.743Z,21.78
2022-09-10T05:22:16.892Z,21.78
2022-09-10T05:24:44.133Z,21.79
2022-09-10T05:27:11.151Z,21.78
2022-09-10T05:29:38.191Z,21.76
2022-09-10T05:32:05.189Z,21.77
2022-09-10T05:34:32.210Z,21.77
2022-09-10T05:36:59.206Z,21.76
2022-09-10T05:39:26.228Z,21.76
2022-09-10T05:41:55.484Z,21.76
2022-09-10T05:44:22.479Z,21.76
2022-09-10T05:46:49.474Z,21.76
2022-09-10T05:49:16.744Z,21.76
2022-09-10T05:51:43.865Z,21.76
2022-09-10T05:54:11.611Z,21.76
2022-09-10T05:56:38.635Z,21.76
2022-09-10T05:59:06.009Z,21.75
2022-09-10T06:01:33.050Z,21.76
2022-09-10T06:04:00.047Z,21.73
2022-09-10T06:06:28.222Z,21.75
2022-09-10T06:08:55.279Z,21.75
2022-09-10T06:11:22.278Z,21.75
2022-09-10T06:13:49.268Z,21.75
2022-09-10T06:16:16.341Z,21.74
2022-09-10T06:18:44.071Z,21.74
2022-09-10T06:21:11.058Z,21.72
2022-09-10T06:23:39.280Z,21.73
2022-09-10T06:26:06.338Z,21.74
2022-09-10T06:28:33.576Z,21.75
2022-09-10T06:31:00.642Z,21.73
2022-09-10T06:33:27.692Z,21.73
2022-09-10T06:35:54.899Z,21.73
2022-09-10T06:38:21.898Z,21.73
2022-09-10T06:40:49.206Z,21.73
2022-09-10T06:43:17.192Z,21.72
2022-09-10T06:45:44.223Z,21.72
2022-09-10T06:50:58.270Z,21.72
2022-09-10T06:53:25.272Z,21.73
2022-09-10T06:55:52.888Z,21.72
2022-09-10T06:58:20.034Z,21.73
2022-09-10T07:00:47.631Z,21.71
2022-09-10T07:03:14.623Z,21.71
2022-09-10T07:05:41.889Z,21.73
2022-09-10T07:08:09.264Z,21.72
2022-09-10T07:10:37.376Z,21.72
2022-09-10T07:13:04.358Z,21.72
2022-09-10T07:15:31.406Z,21.71
2022-09-10T07:17:58.422Z,21.72
2022-09-10T07:20:26.126Z,21.72
2022-09-10T07:22:53.348Z,21.72
2022-09-10T07:25:20.550Z,21.72
2022-09-10T07:27:47.558Z,21.72
2022-09-10T07:30:14.591Z,21.71
2022-09-10T07:32:41.627Z,21.71
2022-09-10T07:35:08.718Z,21.71
2022-09-10T07:37:35.733Z,21.72
2022-09-10T07:40:04.287Z,21.72
2022-09-10T07:42:31.428Z,21.72
2022-09-10T07:44:58.429Z,21.72
2022-09-10T07:47:25.452Z,21.72
2022-09-10T07:49:52.875Z,21.73
2022-09-10T07:52:19.873Z,21.72
2022-09-10T07:54:46.877Z,21.72
2022-09-10T07:57:13.873Z,21.73
2022-09-10T07:59:41.464Z,21.72
2022-09-10T08:02:09.377Z,21.73
2022-09-10T08:04:37.515Z,21.75
2022-09-10T08:07:04.517Z,21.73
2022-09-10T08:09:31.501Z,21.73
2022-09-10T08:11:59.801Z,21.73
2022-09-10T08:14:26.799Z,21.74
2022-09-10T08:16:54.299Z,21.75
2022-09-10T08:19:21.290Z,21.75
2022-09-10T08:21:48.350Z,21.75
2022-09-10T08:24:15.412Z,21.75
2022-09-10T08:26:42.426Z,21.76
2022-09-10T08:29:09.442Z,21.76
2022-09-10T08:31:37.043Z,21.76
2022-09-10T08:34:04.199Z,21.75
2022-09-10T08:36:31.207Z,21.74
2022-09-10T08:39:02.206Z,21.76
2022-09-10T08:41:32.335Z,21.75
2022-09-10T08:43:59.378Z,21.76
2022-09-10T08:46:26.364Z,21.77
2022-09-10T08:48:55.087Z,21.77
2022-09-10T08:51:25.240Z,21.77
2022-09-10T08:53:52.235Z,21.77
2022-09-10T08:56:19.227Z,21.76
2022-09-10T08:58:46.293Z,21.78
2022-09-10T09:01:13.352Z,21.77
2022-09-10T09:03:40.416Z,21.77
2022-09-10T09:06:07.923Z,21.75
2022-09-10T09:08:34.905Z,21.76
2022-09-10T09:11:03.371Z,21.77
2022-09-10T09:13:31.466Z,21.76
2022-09-10T09:15:58.542Z,21.76
2022-09-10T09:18:25.627Z,21.77
2022-09-10T09:20:52.972Z,21.77
2022-09-10T09:23:19.961Z,21.78
2022-09-10T09:25:47.054Z,21.78
2022-09-10T09:28:14.238Z,21.78
2022-09-10T09:30:42.139Z,21.79
2022-09-10T09:33:09.941Z,21.79
2022-09-10T09:35:38.708Z,21.78
2022-09-10T09:38:05.826Z,21.78
2022-09-10T09:40:32.836Z,21.79
2022-09-10T09:42:59.831Z,21.78
2022-09-10T09:45:27.938Z,21.78
2022-09-10T09:47:55.838Z,21.79
2022-09-10T09:50:23.088Z,21.79
2022-09-10T09:52:50.082Z,21.78
2022-09-10T09:55:17.305Z,21.79
2022-09-10T09:57:44.289Z,21.79
2022-09-10T10:00:11.795Z,21.78
2022-09-10T10:02:38.825Z,21.79
2022-09-10T10:05:07.149Z,21.78
2022-09-10T10:07:34.206Z,21.79
2022-09-10T10:10:01.221Z,21.79
2022-09-10T10:12:31.547Z,21.79
2022-09-10T10:14:59.111Z,21.79
2022-09-10T10:17:26.159Z,21.79
2022-09-10T10:19:53.183Z,21.79
2022-09-10T10:22:20.428Z,21.79
2022-09-10T10:24:47.452Z,21.80
2022-09-10T10:27:14.468Z,21.80
2022-09-10T10:29:41.572Z,21.79
2022-09-10T10:32:08.565Z,21.79
2022-09-10T10:34:35.603Z,21.79
2022-09-10T10:37:02.587Z,21.78
2022-09-10T10:39:29.615Z,21.80
2022-09-10T10:41:58.076Z,21.80
2022-09-10T10:44:25.079Z,21.80
2022-09-10T10:46:53.739Z,21.79
2022-09-10T10:49:20.726Z,21.79
2022-09-10T10:51:47.749Z,21.79
2022-09-10T10:54:14.772Z,21.80
2022-09-10T10:56:41.791Z,21.78
2022-09-10T10:59:09.438Z,21.78
2022-09-10T11:01:36.498Z,21.78
2022-09-10T11:04:03.523Z,21.78
2022-09-10T11:06:31.937Z,21.79
2022-09-10T11:08:58.954Z,21.78
2022-09-10T11:11:25.969Z,21.79
2022-09-10T11:13:52.970Z,21.81
2022-09-10T11:16:21.693Z,21.87
2022-09-10T11:18:48.853Z,21.88
2022-09-10T11:21:15.843Z,21.86
2022-09-10T11:23:45.191Z,21.84
2022-09-10T11:26:12.351Z,21.84
2022-09-10T11:28:39.528Z,21.89
2022-09-10T11:31:07.815Z,21.93
2022-09-10T11:33:34.858Z,21.93
2022-09-10T11:36:01.859Z,21.93
2022-09-10T11:38:29.164Z,21.95
2022-09-10T11:40:56.288Z,21.93
2022-09-10T11:43:24.063Z,21.95
2022-09-10T11:45:52.685Z,21.95
2022-09-10T11:48:19.870Z,21.97
2022-09-10T11:50:46.874Z,21.96
2022-09-10T11:53:13.930Z,21.95
2022-09-10T11:55:41.001Z,21.92
2022-09-10T11:58:07.992Z,21.96
2022-09-10T12:00:35.021Z,21.98
2022-09-10T12:03:04.766Z,21.97
2022-09-10T12:05:31.838Z,21.99
2022-09-10T12:07:58.853Z,22.01
2022-09-10T12:10:25.887Z,22.01
2022-09-10T12:12:53.411Z,22.02
2022-09-10T12:15:20.437Z,22.04
2022-09-10T12:17:47.471Z,22.05
2022-09-10T12:20:14.499Z,22.04
2022-09-10T12:22:41.889Z,22.04
2022-09-10T12:25:09.035Z,22.04
2022-09-10T12:27:36.060Z,22.05
2022-09-10T12:30:03.155Z,22.08
2022-09-10T12:32:30.318Z,22.07
2022-09-10T12:34:57.437Z,22.07
2022-09-10T12:37:24.495Z,22.05
2022-09-10T12:39:51.545Z,22.02
2022-09-10T12:42:18.543Z,22.00
2022-09-10T12:44:48.461Z,21.99
2022-09-10T12:47:15.942Z,21.99
2022-09-10T12:49:43.187Z,21.99
2022-09-10T12:52:10.187Z,21.99
2022-09-10T12:54:37.179Z,21.98
2022-09-10T12:57:04.267Z,21.99
2022-09-10T12:59:31.459Z,21.99
2022-09-10T13:01:58.543Z,21.98
2022-09-10T13:04:26.035Z,21.98
2022-09-10T13:06:53.295Z,21.98
2022-09-10T13:09:20.300Z,21.97
2022-09-10T13:11:47.309Z,21.98
2022-09-10T13:14:15.454Z,21.98
2022-09-10T13:16:42.588Z,21.97
2022-09-10T13:19:09.732Z,21.97
2022-09-10T13:21:36.743Z,21.97
2022-09-10T13:24:03.735Z,21.97
2022-09-10T13:26:35.250Z,21.97
2022-09-10T13:29:02.290Z,21.97
2022-09-10T13:31:29.400Z,21.99
2022-09-10T13:33:56.425Z,21.98
2022-09-10T13:36:23.471Z,21.97
2022-09-10T13:38:50.471Z,21.99
2022-09-10T13:41:17.743Z,21.97
2022-09-10T13:43:44.763Z,21.98
2022-09-10T13:46:12.422Z,21.99
2022-09-10T13:48:40.075Z,21.98
2022-09-10T13:51:07.089Z,21.99
2022-09-10T13:53:34.096Z,21.98
2022-09-10T13:56:01.109Z,21.99
2022-09-10T13:58:28.693Z,21.98
2022-09-10T14:00:56.021Z,22.00
2022-09-10T14:03:23.151Z,21.99
2022-09-10T14:05:50.228Z,21.99
2022-09-10T14:08:17.847Z,21.98
2022-09-10T14:10:44.918Z,21.98
2022-09-10T14:13:11.905Z,21.98
2022-09-10T14:15:39.095Z,21.99
2022-09-10T14:18:06.259Z,21.98
2022-09-10T14:20:33.253Z,21.99
2022-09-10T14:23:00.252Z,21.98
2022-09-10T14:25:27.527Z,21.98
2022-09-10T14:27:55.495Z,21.97
2022-09-10T14:30:23.078Z,21.97
2022-09-10T14:32:50.079Z,21.97
2022-09-10T14:35:17.086Z,21.97
2022-09-10T14:37:44.083Z,21.97
2022-09-10T14:40:11.254Z,21.97
2022-09-10T14:42:38.344Z,21.97
2022-09-10T14:45:05.874Z,21.97
2022-09-10T14:47:34.934Z,21.97
2022-09-10T14:50:06.553Z,21.96
2022-09-10T14:52:34.299Z,21.96
2022-09-10T14:55:01.389Z,21.96
2022-09-10T14:57:28.659Z,21.97
2022-09-10T14:59:57.476Z,22.00
2022-09-10T15:02:25.131Z,22.00
2022-09-10T15:04:52.262Z,22.03
2022-09-10T15:07:19.364Z,22.04
2022-09-10T15:09:46.905Z,22.06
2022-09-10T15:12:14.958Z,22.07
2022-09-10T15:14:42.119Z,22.07
2022-09-10T15:17:09.107Z,22.07
2022-09-10T15:19:36.133Z,22.09
2022-09-10T15:22:03.135Z,22.05
2022-09-10T15:24:30.167Z,22.03
2022-09-10T15:26:57.191Z,22.02
2022-09-10T15:29:26.204Z,22.01
2022-09-10T15:31:53.337Z,22.00
2022-09-10T15:34:20.399Z,22.00
2022-09-10T15:36:48.138Z,22.00
2022-09-10T15:39:15.620Z,22.00
2022-09-10T15:41:42.675Z,21.99
2022-09-10T15:44:10.095Z,21.98
2022-09-10T15:46:37.263Z,21.98
2022-09-10T15:49:04.298Z,21.98
2022-09-10T15:51:31.332Z,21.98
2022-09-10T15:54:01.784Z,21.97
2022-09-10T15:56:31.468Z,21.96
2022-09-10T15:58:58.525Z,21.97
2022-09-10T16:01:25.620Z,21.96
2022-09-10T16:03:52.676Z,21.96
2022-09-10T16:06:19.824Z,21.96
2022-09-10T16:08:46.815Z,21.95
2022-09-10T16:11:13.805Z,21.95
2022-09-10T16:13:40.853Z,21.94
2022-09-10T16:16:08.726Z,21.94
2022-09-10T16:18:35.892Z,21.93
2022-09-10T16:21:02.910Z,21.93
2022-09-10T16:23:29.898Z,21.93
2022-09-10T16:25:56.886Z,21.92
2022-09-10T16:28:24.441Z,21.92
2022-09-10T16:30:51.495Z,21.91
2022-09-10T16:33:18.567Z,21.91
2022-09-10T16:35:47.925Z,21.91
2022-09-10T16:38:14.915Z,21.90
2022-09-10T16:40:41.928Z,21.91
2022-09-10T16:43:08.955Z,21.89
2022-09-10T16:45:36.051Z,21.93
2022-09-10T16:48:04.374Z,21.95
2022-09-10T16:50:31.639Z,21.96
2022-09-10T16:52:58.760Z,21.98
2022-09-10T16:55:25.750Z,22.00
2022-09-10T16:57:52.990Z,22.00
2022-09-10T17:00:20.057Z,22.01
2022-09-10T17:02:47.169Z,22.01
2022-09-10T17:05:14.295Z,22.01
2022-09-10T17:07:41.330Z,22.02
2022-09-10T17:10:08.348Z,22.03
2022-09-10T17:12:35.507Z,22.04
2022-09-10T17:15:02.499Z,22.05
2022-09-10T17:17:29.521Z,22.04
2022-09-10T17:19:56.665Z,22.05
2022-09-10T17:22:23.670Z,22.08
2022-09-10T17:24:50.830Z,22.08
2022-09-10T17:27:17.840Z,22.07
2022-09-10T17:29:44.825Z,22.10
2022-09-10T17:32:11.828Z,22.10
2022-09-10T17:34:38.843Z,22.11
2022-09-10T17:37:05.846Z,22.12
2022-09-10T17:39:32.942Z,22.09
2022-09-10T17:42:00.355Z,22.05
2022-09-10T17:44:27.487Z,22.03
2022-09-10T17:46:55.297Z,22.02
2022-09-10T17:49:22.333Z,22.01
2022-09-10T17:51:49.577Z,22.00
2022-09-10T17:54:16.853Z,21.98
2022-09-10T17:56:43.861Z,21.97
2022-09-10T17:59:10.869Z,21.97
2022-09-10T18:01:38.849Z,21.96
2022-09-10T18:04:06.066Z,21.95
2022-09-10T18:06:33.065Z,21.94
2022-09-10T18:09:00.576Z,21.94
2022-09-10T18:11:28.218Z,21.93
2022-09-10T18:13:55.263Z,21.92
2022-09-10T18:16:22.373Z,21.91
2022-09-10T18:18:49.386Z,21.89
2022-09-10T18:21:16.383Z,21.89
2022-09-10T18:23:44.349Z,21.89
2022-09-10T18:26:11.406Z,21.87
2022-09-10T18:28:38.489Z,21.87
2022-09-10T18:31:05.502Z,21.86
2022-09-10T18:33:32.507Z,21.86
2022-09-10T18:35:59.535Z,21.87
2022-09-10T18:38:26.605Z,21.85
2022-09-10T18:40:54.847Z,21.85
2022-09-10T18:43:21.850Z,21.87
2022-09-10T18:45:48.838Z,21.85
2022-09-10T18:48:15.897Z,21.84
2022-09-10T18:50:42.905Z,21.85
2022-09-10T18:53:09.923Z,21.83
2022-09-10T18:55:37.201Z,21.83
2022-09-10T18:58:04.185Z,21.82
2022-09-10T19:00:31.888Z,21.81
2022-09-10T19:02:58.895Z,21.81
2022-09-10T19:05:27.078Z,21.81
2022-09-10T19:07:54.100Z,21.81
2022-09-10T19:10:21.611Z,21.80
2022-09-10T19:12:48.853Z,21.79
2022-09-10T19:15:15.897Z,21.79
2022-09-10T19:17:42.891Z,21.80
2022-09-10T19:20:10.007Z,21.79
2022-09-10T19:22:37.711Z,21.77
2022-09-10T19:25:04.737Z,21.78
2022-09-10T19:27:35.070Z,21.78
2022-09-10T19:30:02.126Z,21.77
2022-09-10T19:32:29.139Z,21.77
2022-09-10T19:34:56.163Z,21.76
2022-09-10T19:37:24.325Z,21.76
2022-09-10T19:39:51.506Z,21.76
2022-09-10T19:42:18.726Z,21.76
2022-09-10T19:44:45.805Z,21.74
2022-09-10T19:47:12.824Z,21.75
2022-09-10T19:49:39.847Z,21.74
2022-09-10T19:52:07.021Z,21.73
2022-09-10T19:54:34.518Z,21.73
2022-09-10T19:57:01.515Z,21.73
2022-09-10T19:59:28.510Z,21.75
2022-09-10T20:01:55.655Z,21.73
2022-09-10T20:04:22.746Z,21.74
2022-09-10T20:06:50.386Z,21.74
2022-09-10T20:09:17.430Z,21.74
2022-09-10T20:11:45.381Z,21.72
2022-09-10T20:14:13.241Z,21.72
2022-09-10T20:16:40.953Z,21.72
2022-09-10T20:19:07.951Z,21.72
2022-09-10T20:21:34.937Z,21.72
2022-09-10T20:24:01.981Z,21.71
2022-09-10T20:26:28.981Z,21.71
2022-09-10T20:28:56.057Z,21.71
2022-09-10T20:31:23.105Z,21.71
2022-09-10T20:33:50.162Z,21.70
2022-09-10T20:36:17.170Z,21.70
2022-09-10T20:38:44.209Z,21.70
2022-09-10T20:41:12.083Z,21.69
2022-09-10T20:43:39.336Z,21.68
2022-09-10T20:46:06.556Z,21.68
2022-09-10T20:48:33.587Z,21.69
2022-09-10T20:51:00.617Z,21.68
2022-09-10T20:53:27.640Z,21.68
2022-09-10T20:55:54.754Z,21.68
2022-09-10T20:58:24.244Z,21.68
2022-09-10T21:00:51.809Z,21.67
2022-09-10T21:03:18.827Z,21.67
2022-09-10T21:05:45.818Z,21.68
2022-09-10T21:08:12.850Z,21.66
2022-09-10T21:10:39.844Z,21.66
2022-09-10T21:13:09.600Z,21.67
2022-09-10T21:15:36.642Z,21.67
2022-09-10T21:18:03.770Z,21.67
2022-09-10T21:20:30.758Z,21.66
2022-09-10T21:22:57.762Z,21.65
2022-09-10T21:25:26.095Z,21.65
2022-09-10T21:27:53.145Z,21.66
2022-09-10T21:30:20.187Z,21.66
2022-09-10T21:32:47.196Z,21.65
2022-09-10T21:35:14.360Z,21.64
2022-09-10T21:37:41.430Z,21.65
2022-09-10T21:40:08.699Z,21.65
2022-09-10T21:42:35.709Z,21.64
2022-09-10T21:45:02.845Z,21.63
2022-09-10T21:47:29.911Z,21.63
2022-09-10T21:49:57.027Z,21.63
2022-09-10T21:52:24.107Z,21.64
2022-09-10T21:54:51.131Z,21.63
2022-09-10T21:57:18.118Z,21.62
2022-09-10T21:59:45.188Z,21.61
2022-09-10T22:02:12.352Z,21.63
2022-09-10T22:04:39.462Z,21.62
2022-09-10T22:07:06.479Z,21.62
2022-09-10T22:09:33.799Z,21.61
2022-09-10T22:12:00.831Z,21.62
2022-09-10T22:14:27.826Z,21.62
2022-09-10T22:16:55.096Z,21.61
2022-09-10T22:19:22.597Z,21.61
2022-09-10T22:21:50.129Z,21.62
2022-09-10T22:24:20.140Z,21.62
2022-09-10T22:26:47.381Z,21.61
2022-09-10T22:29:15.293Z,21.61
2022-09-10T22:31:42.295Z,21.60
2022-09-10T22:34:09.311Z,21.61
2022-09-10T22:36:36.310Z,21.60
2022-09-10T22:39:03.362Z,21.60
2022-09-10T22:41:31.510Z,21.60
2022-09-10T22:43:58.507Z,21.58
2022-09-10T22:46:26.681Z,21.60
2022-09-10T22:48:53.769Z,21.59
2022-09-10T22:51:20.837Z,21.60
2022-09-10T22:53:48.148Z,21.59
2022-09-10T22:56:15.862Z,21.58
2022-09-10T22:58:43.020Z,21.59
2022-09-10T23:01:10.157Z,21.59
2022-09-10T23:03:37.194Z,21.59
2022-09-10T23:06:06.097Z,21.58
2022-09-10T23:08:33.253Z,21.58
2022-09-10T23:11:00.461Z,21.58
2022-09-10T23:13:27.496Z,21.57
2022-09-10T23:15:54.876Z,21.57
2022-09-10T23:18:21.888Z,21.57
2022-09-10T23:20:48.965Z,21.57
2022-09-10T23:23:15.986Z,21.56
2022-09-10T23:25:43.226Z,21.57
2022-09-10T23:28:10.219Z,21.56
2022-09-10T23:30:37.232Z,21.56
2022-09-10T23:33:04.218Z,21.56
2022-09-10T23:35:31.212Z,21.56
2022-09-10T23:37:58.253Z,21.56
2022-09-10T23:40:31.077Z,21.56
2022-09-10T23:43:00.514Z,21.55
2022-09-10T23:45:27.571Z,21.56
2022-09-10T23:47:55.359Z,21.55
2022-09-10T23:50:22.395Z,21.55
2022-09-10T23:52:49.386Z,21.55
2022-09-10T23:55:16.375Z,21.55
2022-09-10T23:57:43.382Z,21.56
